createdAt,value
2022-11-02T00:01:03.081Z,98.57
2022-11-02T00:03:31.096Z,98.48
2022-11-02T00:05:59.052Z,97.70
2022-11-02T00:08:28.404Z,95.89
2022-11-02T00:10:56.464Z,95.16
2022-11-02T00:13:24.524Z,95.72
2022-11-02T00:15:52.540Z,95.95
2022-11-02T00:18:20.833Z,96.22
2022-11-02T00:20:49.255Z,93.02
2022-11-02T00:23:17.422Z,95.02
2022-11-02T00:25:50.030Z,94.78
2022-11-02T00:28:18.148Z,96.84
2022-11-02T00:30:46.879Z,96.75
2022-11-02T00:33:14.834Z,96.95
2022-11-02T00:35:45.066Z,97.65
2022-11-02T00:38:13.132Z,98.22
2022-11-02T00:40:41.131Z,97.42
2022-11-02T00:43:10.503Z,97.61
2022-11-02T00:45:38.674Z,96.64
2022-11-02T00:48:07.538Z,98.06
2022-11-02T00:50:35.733Z,98.52
2022-11-02T00:53:04.466Z,97.69
2022-11-02T00:55:32.467Z,97.99
2022-11-02T00:58:04.506Z,96.86
2022-11-02T01:00:34.119Z,99.14
2022-11-02T01:03:02.552Z,99.24
2022-11-02T01:05:31.162Z,99.65
2022-11-02T01:07:59.237Z,99.38
2022-11-02T01:10:27.761Z,99.04
2022-11-02T01:12:55.697Z,98.67
2022-11-02T01:15:23.740Z,98.67
2022-11-02T01:17:53.620Z,99.92
2022-11-02T01:20:21.702Z,99.53
2022-11-02T01:22:49.637Z,99.58
2022-11-02T01:25:17.828Z,97.69
2022-11-02T01:27:46.109Z,97.77
2022-11-02T01:30:14.972Z,98.47
2022-11-02T01:32:45.009Z,100.00
2022-11-02T01:35:14.419Z,98.75
2022-11-02T01:37:42.394Z,99.44
2022-11-02T01:40:11.526Z,99.41
2022-11-02T01:42:39.660Z,97.42
2022-11-02T01:45:08.618Z,98.23
2022-11-02T01:47:39.695Z,97.10
2022-11-02T01:50:13.360Z,98.61
2022-11-02T01:52:43.405Z,98.09
2022-11-02T01:55:14.872Z,97.06
2022-11-02T01:57:46.815Z,94.93
2022-11-02T02:00:17.522Z,96.89
2022-11-02T02:02:52.549Z,97.11
2022-11-02T02:05:23.678Z,97.06
2022-11-02T02:07:54.807Z,98.47
2022-11-02T02:10:23.146Z,98.91
2022-11-02T02:12:51.514Z,97.75
2022-11-02T02:15:23.205Z,96.51
2022-11-02T02:17:57.099Z,97.17
2022-11-02T02:20:41.242Z,93.94
2022-11-02T02:23:40.158Z,96.37
2022-11-02T02:26:43.339Z,97.02
2022-11-02T02:29:20.549Z,96.17
2022-11-02T02:31:56.866Z,96.91
2022-11-02T02:34:31.029Z,95.68
2022-11-02T02:37:04.884Z,95.73
2022-11-02T02:39:42.069Z,96.32
2022-11-02T02:42:17.347Z,95.91
2022-11-02T02:44:55.823Z,95.31
2022-11-02T02:47:29.152Z,96.22
2022-11-02T02:50:04.788Z,96.31
2022-11-02T02:52:36.021Z,97.13
2022-11-02T02:55:06.886Z,97.20
2022-11-02T02:57:37.391Z,96.31
2022-11-02T03:00:14.413Z,96.92
2022-11-02T03:02:44.779Z,95.94
2022-11-02T03:05:25.197Z,96.13
2022-11-02T03:07:53.996Z,95.06
2022-11-02T03:10:27.195Z,96.53
2022-11-02T03:13:04.597Z,96.98
2022-11-02T03:15:39.539Z,97.52
2022-11-02T03:18:18.564Z,95.42
2022-11-02T03:20:57.151Z,96.62
2022-11-02T03:23:31.465Z,96.39
2022-11-02T03:26:06.548Z,94.68
2022-11-02T03:28:54.660Z,96.52
2022-11-02T03:31:35.033Z,97.12
2022-11-02T03:34:14.796Z,96.51
2022-11-02T03:36:48.015Z,96.49
2022-11-02T03:39:21.197Z,95.43
2022-11-02T03:41:51.232Z,94.08
2022-11-02T03:44:24.968Z,97.80
2022-11-02T03:47:01.111Z,97.06
2022-11-02T03:49:32.038Z,97.51
2022-11-02T03:52:05.783Z,96.45
2022-11-02T03:54:43.778Z,98.17
2022-11-02T03:57:18.778Z,98.69
2022-11-02T03:59:47.251Z,99.81
2022-11-02T04:02:18.447Z,99.21
2022-11-02T04:04:51.850Z,99.32
2022-11-02T04:07:26.706Z,99.25
2022-11-02T04:09:54.789Z,100.00
2022-11-02T04:12:40.160Z,100.00
2022-11-02T04:15:10.664Z,99.39
2022-11-02T04:17:59.701Z,98.86
2022-11-02T04:20:28.192Z,97.88
2022-11-02T04:23:10.025Z,98.06
2022-11-02T04:25:38.148Z,97.25
2022-11-02T04:28:15.682Z,96.92
2022-11-02T04:30:50.409Z,97.62
2022-11-02T04:33:32.883Z,98.85
2022-11-02T04:36:09.930Z,98.60
2022-11-02T04:38:42.602Z,99.93
2022-11-02T04:41:43.104Z,99.71
2022-11-02T04:44:29.390Z,99.67
2022-11-02T04:47:02.666Z,100.00
2022-11-02T04:49:34.738Z,100.00
2022-11-02T04:52:04.350Z,100.00
2022-11-02T04:54:35.004Z,100.00
2022-11-02T04:57:05.352Z,100.00
2022-11-02T04:59:34.424Z,100.00
2022-11-02T05:02:02.581Z,100.00
2022-11-02T05:04:30.740Z,99.86
2022-11-02T05:07:01.800Z,99.49
2022-11-02T05:09:32.434Z,98.29
2022-11-02T05:12:01.993Z,99.71
2022-11-02T05:14:30.049Z,99.15
2022-11-02T05:16:58.808Z,99.66
2022-11-02T05:19:26.949Z,100.00
2022-11-02T05:21:55.221Z,100.00
2022-11-02T05:24:25.834Z,100.00
2022-11-02T05:26:54.092Z,100.00
2022-11-02T05:29:24.832Z,100.00
2022-11-02T05:31:53.823Z,100.00
2022-11-02T05:34:22.201Z,100.00
2022-11-02T05:36:50.890Z,100.00
2022-11-02T05:39:18.968Z,100.00
2022-11-02T05:41:48.861Z,100.00
2022-11-02T05:44:16.831Z,100.00
2022-11-02T05:46:47.179Z,100.00
2022-11-02T05:49:15.112Z,100.00
2022-11-02T05:51:45.046Z,100.00
2022-11-02T05:54:12.990Z,100.00
2022-11-02T05:56:41.109Z,100.00
2022-11-02T05:59:10.417Z,100.00
2022-11-02T06:01:39.122Z,100.00
2022-11-02T06:04:07.410Z,100.00
2022-11-02T06:06:35.354Z,100.00
2022-11-02T06:09:07.123Z,100.00
2022-11-02T06:11:35.707Z,100.00
2022-11-02T06:14:04.407Z,100.00
2022-11-02T06:16:33.806Z,100.00
2022-11-02T06:19:01.813Z,100.00
2022-11-02T06:21:29.852Z,100.00
2022-11-02T06:23:59.022Z,100.00
2022-11-02T06:26:27.139Z,100.00
2022-11-02T06:28:55.077Z,100.00
2022-11-02T06:31:23.155Z,100.00
2022-11-02T06:33:52.455Z,100.00
2022-11-02T06:36:20.426Z,100.00
2022-11-02T06:38:48.426Z,100.00
2022-11-02T06:41:16.395Z,100.00
2022-11-02T06:43:44.468Z,100.00
2022-11-02T06:46:12.409Z,100.00
2022-11-02T06:48:40.341Z,100.00
2022-11-02T06:51:09.805Z,100.00
2022-11-02T06:53:37.775Z,99.79
2022-11-02T06:56:06.154Z,99.18
2022-11-02T06:58:34.083Z,99.96
2022-11-02T07:01:03.925Z,100.00
2022-11-02T07:03:32.463Z,100.00
2022-11-02T07:06:00.765Z,100.00
2022-11-02T07:08:30.096Z,100.00
2022-11-02T07:10:58.891Z,100.00
2022-11-02T07:13:26.994Z,100.00
2022-11-02T07:15:55.920Z,99.86
2022-11-02T07:18:24.098Z,99.44
2022-11-02T07:20:52.342Z,99.57
2022-11-02T07:23:23.858Z,100.00
2022-11-02T07:25:53.420Z,100.00
2022-11-02T07:28:21.456Z,100.00
2022-11-02T07:30:50.349Z,100.00
2022-11-02T07:33:18.348Z,100.00
2022-11-02T07:35:46.311Z,100.00
2022-11-02T07:38:14.284Z,100.00
2022-11-02T07:40:42.386Z,97.88
2022-11-02T07:43:11.865Z,97.64
2022-11-02T07:45:48.207Z,96.98
2022-11-02T07:48:16.187Z,96.75
2022-11-02T07:50:44.219Z,96.16
2022-11-02T07:53:12.305Z,93.78
2022-11-02T07:55:40.759Z,94.06
2022-11-02T07:58:14.122Z,95.75
2022-11-02T08:00:42.533Z,94.45
2022-11-02T08:03:12.760Z,93.64
2022-11-02T08:05:42.569Z,94.00
2022-11-02T08:08:13.788Z,92.87
2022-11-02T08:10:42.679Z,94.18
2022-11-02T08:13:13.482Z,92.53
2022-11-02T08:15:41.530Z,90.84
2022-11-02T08:18:14.386Z,90.77
2022-11-02T08:20:42.991Z,92.85
2022-11-02T08:23:11.799Z,93.05
2022-11-02T08:25:41.258Z,91.69
2022-11-02T08:28:13.332Z,91.01
2022-11-02T08:30:42.714Z,89.73
2022-11-02T08:33:15.588Z,89.14
2022-11-02T08:35:44.896Z,88.22
2022-11-02T08:38:13.759Z,88.29
2022-11-02T08:40:42.106Z,87.63
2022-11-02T08:43:11.663Z,85.69
2022-11-02T08:48:30.416Z,86.70
2022-11-02T08:50:58.661Z,87.29
2022-11-02T08:53:26.811Z,86.78
2022-11-02T08:55:58.261Z,88.96
2022-11-02T08:58:26.746Z,87.27
2022-11-02T09:00:55.593Z,86.86
2022-11-02T09:03:26.789Z,88.47
2022-11-02T09:06:00.907Z,85.94
2022-11-02T09:08:29.476Z,86.86
2022-11-02T09:11:00.819Z,87.90
2022-11-02T09:13:29.431Z,88.36
2022-11-02T09:15:58.997Z,86.66
2022-11-02T09:18:27.552Z,83.35
2022-11-02T09:20:55.575Z,83.33
2022-11-02T09:23:25.231Z,86.69
2022-11-02T09:25:53.677Z,84.92
2022-11-02T09:28:22.221Z,85.07
2022-11-02T09:30:50.292Z,85.55
2022-11-02T09:33:18.485Z,85.94
2022-11-02T09:35:47.801Z,84.21
2022-11-02T09:38:18.486Z,82.50
2022-11-02T09:40:55.708Z,82.64
2022-11-02T09:43:37.542Z,83.56
2022-11-02T09:46:09.028Z,82.74
2022-11-02T09:48:40.864Z,81.65
2022-11-02T09:51:13.127Z,81.55
2022-11-02T09:53:49.730Z,82.26
2022-11-02T09:56:20.907Z,82.12
2022-11-02T09:58:54.541Z,78.28
2022-11-02T10:01:43.362Z,80.69
2022-11-02T10:04:35.470Z,78.44
2022-11-02T10:07:10.303Z,79.46
2022-11-02T10:09:47.955Z,79.78
2022-11-02T10:12:27.937Z,78.16
2022-11-02T10:15:04.143Z,76.41
2022-11-02T10:17:37.475Z,76.41
2022-11-02T10:20:18.900Z,76.71
2022-11-02T10:22:48.727Z,77.36
2022-11-02T10:25:18.391Z,76.03
2022-11-02T10:27:54.845Z,74.49
2022-11-02T10:30:22.833Z,76.27
2022-11-02T10:32:53.886Z,75.07
2022-11-02T10:35:41.040Z,74.40
2022-11-02T10:38:25.992Z,74.57
2022-11-02T10:41:16.109Z,74.62
2022-11-02T10:44:04.412Z,72.87
2022-11-02T10:46:47.705Z,73.41
2022-11-02T10:49:31.001Z,75.03
2022-11-02T10:51:59.054Z,74.08
2022-11-02T10:54:31.010Z,73.02
2022-11-02T10:57:01.672Z,73.55
2022-11-02T10:59:31.103Z,73.84
2022-11-02T11:02:11.035Z,72.88
2022-11-02T11:04:39.077Z,71.90
2022-11-02T11:07:09.977Z,72.38
2022-11-02T11:09:47.253Z,73.33
2022-11-02T11:12:20.917Z,73.35
2022-11-02T11:20:35.445Z,71.20
2022-11-02T11:23:25.396Z,71.63
2022-11-02T11:25:59.389Z,69.73
2022-11-02T11:28:30.667Z,70.44
2022-11-02T11:31:12.199Z,70.22
2022-11-02T11:33:49.551Z,66.99
2022-11-02T11:36:28.973Z,67.27
2022-11-02T11:39:00.041Z,64.84
2022-11-02T11:41:29.111Z,66.58
2022-11-02T11:43:57.311Z,66.71
2022-11-02T11:46:40.487Z,65.84
2022-11-02T11:49:31.105Z,65.23
2022-11-02T11:52:05.348Z,65.66
2022-11-02T11:54:34.225Z,65.81
2022-11-02T11:57:22.468Z,64.00
2022-11-02T11:59:53.133Z,62.27
2022-11-02T12:02:25.610Z,62.00
2022-11-02T12:05:00.757Z,61.93
2022-11-02T12:07:46.848Z,60.51
2022-11-02T12:10:23.769Z,59.93
2022-11-02T12:13:06.465Z,58.45
2022-11-02T12:15:55.554Z,60.58
2022-11-02T12:18:45.970Z,59.71
2022-11-02T12:21:28.376Z,59.66
2022-11-02T12:24:19.371Z,60.31
2022-11-02T12:26:57.475Z,58.18
2022-11-02T12:29:53.633Z,58.66
2022-11-02T12:32:34.377Z,57.82
2022-11-02T12:35:32.819Z,58.06
2022-11-02T12:38:24.439Z,59.50
2022-11-02T12:41:03.099Z,59.91
2022-11-02T12:43:39.869Z,60.12
2022-11-02T12:46:20.943Z,60.99
2022-11-02T12:48:59.583Z,59.64
2022-11-02T12:51:34.399Z,57.98
2022-11-02T12:54:11.339Z,60.59
2022-11-02T12:56:46.655Z,61.94
2022-11-02T12:59:20.978Z,61.77
2022-11-02T13:01:53.124Z,60.36
2022-11-02T13:04:28.130Z,59.85
2022-11-02T13:07:04.465Z,59.78
2022-11-02T13:09:36.889Z,61.47
2022-11-02T13:12:09.515Z,61.18
2022-11-02T13:14:41.702Z,60.16
2022-11-02T13:17:15.971Z,58.49
2022-11-02T13:19:48.716Z,58.40
2022-11-02T13:22:21.470Z,58.89
2022-11-02T13:24:54.729Z,58.77
2022-11-02T13:27:38.582Z,58.68
2022-11-02T13:30:15.536Z,59.06
2022-11-02T13:32:46.676Z,59.88
2022-11-02T13:35:20.037Z,59.46
2022-11-02T13:37:54.588Z,57.27
2022-11-02T13:40:27.540Z,58.71
2022-11-02T13:43:27.627Z,59.96
2022-11-02T13:46:24.869Z,58.49
2022-11-02T13:48:58.931Z,58.00
2022-11-02T13:51:36.020Z,57.32
2022-11-02T13:54:13.987Z,58.52
2022-11-02T13:56:42.733Z,58.86
2022-11-02T13:59:19.553Z,59.89
2022-11-02T14:01:48.038Z,59.20
2022-11-02T14:04:17.348Z,61.30
2022-11-02T14:06:54.219Z,61.21
2022-11-02T14:09:29.241Z,60.83
2022-11-02T14:12:29.568Z,61.58
2022-11-02T14:15:42.410Z,61.19
2022-11-02T14:18:31.193Z,61.35
2022-11-02T14:21:00.368Z,61.49
2022-11-02T14:23:39.104Z,60.84
2022-11-02T14:26:34.647Z,61.14
2022-11-02T14:29:26.779Z,61.64
2022-11-02T14:32:03.580Z,61.86
2022-11-02T14:34:50.519Z,62.17
2022-11-02T14:37:50.208Z,62.23
2022-11-02T14:40:35.619Z,63.59
2022-11-02T14:43:31.664Z,65.98
2022-11-02T14:46:09.706Z,66.22
2022-11-02T14:48:47.205Z,66.25
2022-11-02T14:51:20.560Z,66.76
2022-11-02T14:53:50.792Z,69.22
2022-11-02T14:56:18.872Z,70.71
2022-11-02T14:58:54.979Z,70.43
2022-11-02T15:01:23.799Z,69.06
2022-11-02T15:03:52.529Z,69.60
2022-11-02T15:06:24.123Z,69.79
2022-11-02T15:08:55.413Z,70.69
2022-11-02T15:11:46.132Z,70.85
2022-11-02T15:14:55.135Z,71.88
2022-11-02T15:17:52.771Z,70.54
2022-11-02T15:20:32.694Z,71.20
2022-11-02T15:23:28.709Z,73.39
2022-11-02T15:25:59.918Z,73.71
2022-11-02T15:28:30.777Z,74.19
2022-11-02T15:31:04.000Z,74.14
2022-11-02T15:33:38.201Z,75.37
2022-11-02T15:36:09.213Z,74.34
2022-11-02T15:38:40.289Z,73.39
2022-11-02T15:41:22.965Z,74.06
2022-11-02T15:44:07.765Z,73.59
2022-11-02T15:46:53.676Z,74.20
2022-11-02T15:49:38.221Z,74.54
2022-11-02T15:52:18.585Z,73.80
2022-11-02T15:54:58.312Z,76.83
2022-11-02T15:57:37.418Z,76.40
2022-11-02T16:00:15.974Z,77.16
2022-11-02T16:02:48.138Z,77.74
2022-11-02T16:05:20.920Z,76.72
2022-11-02T16:08:10.021Z,76.71
2022-11-02T16:10:39.138Z,77.78
2022-11-02T16:13:16.980Z,76.71
2022-11-02T16:15:46.530Z,76.70
2022-11-02T16:18:27.638Z,78.41
2022-11-02T16:20:57.376Z,77.42
2022-11-02T16:23:28.051Z,78.53
2022-11-02T16:25:58.544Z,76.52
2022-11-02T16:28:27.957Z,76.45
2022-11-02T16:31:10.046Z,75.33
2022-11-02T16:33:45.461Z,76.46
2022-11-02T16:36:16.981Z,77.87
2022-11-02T16:38:49.560Z,78.38
2022-11-02T16:41:18.033Z,77.99
2022-11-02T16:43:48.062Z,79.60
2022-11-02T16:46:18.102Z,79.47
2022-11-02T16:49:12.877Z,79.05
2022-11-02T16:51:41.391Z,78.23
2022-11-02T16:54:29.608Z,79.38
2022-11-02T16:57:04.946Z,77.39
2022-11-02T16:59:37.079Z,77.84
2022-11-02T17:02:06.513Z,78.85
2022-11-02T17:04:42.249Z,78.69
2022-11-02T17:07:14.056Z,78.47
2022-11-02T17:09:42.305Z,79.37
2022-11-02T17:12:15.299Z,79.67
2022-11-02T17:14:45.618Z,78.55
2022-11-02T17:17:40.184Z,80.99
2022-11-02T17:20:22.130Z,80.18
2022-11-02T17:22:58.923Z,79.23
2022-11-02T17:25:29.319Z,79.98
2022-11-02T17:27:58.856Z,80.96
2022-11-02T17:30:45.550Z,80.17
2022-11-02T17:33:28.871Z,81.17
2022-11-02T17:36:06.407Z,81.66
2022-11-02T17:38:35.228Z,80.28
2022-11-02T17:41:23.480Z,79.72
2022-11-02T17:43:50.672Z,79.46
2022-11-02T17:46:18.692Z,80.56
2022-11-02T17:48:46.668Z,79.26
2022-11-02T17:51:16.377Z,79.04
2022-11-02T17:53:44.397Z,79.95
2022-11-02T17:56:12.428Z,81.36
2022-11-02T17:58:40.755Z,82.10
2022-11-02T18:01:11.686Z,82.26
2022-11-02T18:03:40.009Z,79.61
2022-11-02T18:06:08.446Z,80.00
2022-11-02T18:08:51.888Z,78.70
2022-11-02T18:11:25.785Z,79.26
2022-11-02T18:13:54.494Z,79.21
2022-11-02T18:16:22.538Z,77.24
2022-11-02T18:18:50.516Z,76.75
2022-11-02T18:21:18.528Z,76.78
2022-11-02T18:23:47.921Z,75.63
2022-11-02T18:26:16.222Z,76.47
2022-11-02T18:28:44.239Z,78.96
2022-11-02T18:31:12.210Z,78.96
2022-11-02T18:33:40.227Z,82.14
2022-11-02T18:36:10.267Z,83.40
2022-11-02T18:38:38.672Z,81.28
2022-11-02T18:41:23.111Z,84.08
2022-11-02T18:43:51.055Z,83.78
2022-11-02T18:46:19.263Z,82.83
2022-11-02T18:48:47.471Z,82.04
2022-11-02T18:51:15.596Z,82.70
2022-11-02T18:53:43.587Z,80.62
2022-11-02T18:56:13.316Z,80.16
2022-11-02T18:58:41.295Z,82.44
2022-11-02T19:01:10.614Z,82.38
2022-11-02T19:03:38.913Z,83.36
2022-11-02T19:06:25.073Z,84.81
2022-11-02T19:09:10.407Z,84.65
2022-11-02T19:11:39.888Z,83.49
2022-11-02T19:14:08.596Z,85.34
2022-11-02T19:16:37.077Z,85.67
2022-11-02T19:19:05.420Z,83.92
2022-11-02T19:21:33.428Z,83.53
2022-11-02T19:24:01.621Z,82.89
2022-11-02T19:26:29.593Z,84.26
2022-11-02T19:29:03.055Z,82.70
2022-11-02T19:31:36.426Z,85.05
2022-11-02T19:34:04.546Z,84.08
2022-11-02T19:36:32.836Z,82.94
2022-11-02T19:39:03.392Z,84.35
2022-11-02T19:41:32.159Z,84.09
2022-11-02T19:44:01.647Z,82.59
2022-11-02T19:46:29.762Z,83.35
2022-11-02T19:48:58.400Z,83.71
2022-11-02T19:51:28.379Z,86.41
2022-11-02T19:53:58.316Z,84.79
2022-11-02T19:56:27.646Z,85.44
2022-11-02T19:58:56.955Z,82.75
2022-11-02T20:01:28.179Z,83.47
2022-11-02T20:03:57.104Z,81.62
2022-11-02T20:06:27.293Z,82.07
2022-11-02T20:08:57.045Z,82.58
2022-11-02T20:11:27.207Z,85.59
2022-11-02T20:13:56.960Z,83.79
2022-11-02T20:16:26.953Z,82.54
2022-11-02T20:18:59.096Z,84.02
2022-11-02T20:21:33.481Z,83.25
2022-11-02T20:24:05.603Z,82.01
2022-11-02T20:26:36.468Z,81.62
2022-11-02T20:29:06.918Z,81.86
2022-11-02T20:31:38.051Z,82.41
2022-11-02T20:34:09.077Z,83.77
2022-11-02T20:36:37.123Z,83.51
2022-11-02T20:39:07.584Z,85.04
2022-11-02T20:41:35.625Z,83.43
2022-11-02T20:44:03.916Z,81.99
2022-11-02T20:46:41.974Z,81.54
2022-11-02T20:49:29.319Z,82.50
2022-11-02T20:51:59.893Z,80.63
2022-11-02T20:54:29.877Z,81.61
2022-11-02T20:56:58.191Z,82.12
2022-11-02T20:59:26.361Z,81.83
2022-11-02T21:01:54.483Z,83.89
2022-11-02T21:04:23.876Z,83.16
2022-11-02T21:06:52.136Z,83.43
2022-11-02T21:09:20.646Z,84.85
2022-11-02T21:12:06.390Z,84.01
2022-11-02T21:14:34.511Z,83.64
2022-11-02T21:17:03.241Z,85.79
2022-11-02T21:19:32.615Z,86.42
2022-11-02T21:22:00.837Z,86.02
2022-11-02T21:24:29.643Z,86.46
2022-11-02T21:26:58.041Z,85.18
2022-11-02T21:29:26.035Z,86.35
2022-11-02T21:31:54.055Z,86.61
2022-11-02T21:34:22.045Z,86.00
2022-11-02T21:36:51.499Z,84.89
2022-11-02T21:39:19.543Z,86.48
2022-11-02T21:41:48.255Z,84.59
2022-11-02T21:44:16.308Z,85.40
2022-11-02T21:46:44.367Z,87.61
2022-11-02T21:49:13.100Z,88.24
2022-11-02T21:51:42.624Z,88.54
2022-11-02T21:54:12.009Z,87.22
2022-11-02T21:56:40.092Z,85.96
2022-11-02T21:59:09.499Z,86.60
2022-11-02T22:01:46.873Z,88.70
2022-11-02T22:04:17.288Z,89.53
2022-11-02T22:06:45.408Z,89.17
2022-11-02T22:09:14.987Z,89.49
2022-11-02T22:11:44.938Z,88.89
2022-11-02T22:14:13.955Z,89.40
2022-11-02T22:16:43.799Z,88.90
2022-11-02T22:19:13.572Z,86.46
2022-11-02T22:21:43.147Z,87.71
2022-11-02T22:24:11.363Z,87.83
2022-11-02T22:26:40.963Z,87.24
2022-11-02T22:29:09.580Z,89.02
2022-11-02T22:31:39.704Z,90.09
2022-11-02T22:34:09.151Z,88.96
2022-11-02T22:36:38.429Z,88.93
2022-11-02T22:39:07.380Z,88.46
2022-11-02T22:41:36.652Z,88.61
2022-11-02T22:44:07.983Z,89.36
2022-11-02T22:46:37.831Z,89.80
2022-11-02T22:49:06.790Z,88.10
2022-11-02T22:51:37.083Z,87.80
2022-11-02T22:54:06.944Z,88.82
2022-11-02T22:56:36.011Z,87.70
2022-11-02T22:59:06.287Z,87.74
2022-11-02T23:01:34.660Z,88.55
2022-11-02T23:04:03.114Z,89.93
2022-11-02T23:06:31.352Z,88.18
2022-11-02T23:09:00.335Z,89.62
2022-11-02T23:11:29.760Z,90.99
2022-11-02T23:13:59.750Z,90.74
2022-11-02T23:16:30.794Z,91.93
2022-11-02T23:19:25.218Z,91.96
2022-11-02T23:22:09.885Z,91.83
2022-11-02T23:24:55.192Z,92.86
2022-11-02T23:27:23.268Z,91.05
2022-11-02T23:30:09.109Z,91.69
2022-11-02T23:32:39.186Z,92.97
2022-11-02T23:35:25.488Z,92.51
2022-11-02T23:38:03.296Z,92.09
2022-11-02T23:40:31.889Z,92.57
2022-11-02T23:42:59.873Z,93.18
2022-11-02T23:45:27.855Z,92.24
2022-11-02T23:48:01.373Z,93.16
2022-11-02T23:50:54.093Z,91.50
2022-11-02T23:53:41.278Z,92.42
2022-11-02T23:56:33.466Z,92.17
2022-11-02T23:59:07.815Z,90.66
